createdAt,value
2019-05-29T00:00:53.972Z,12.32
2019-05-29T00:01:53.712Z,12.32
2019-05-29T00:02:53.718Z,12.28
2019-05-29T00:03:53.898Z,12.17
2019-05-29T00:04:53.692Z,12.3
2019-05-29T00:05:53.788Z,12.25
2019-05-29T00:06:53.727Z,12.33
2019-05-29T00:07:53.823Z,12.2
2019-05-29T00:08:53.805Z,12.17
2019-05-29T00:09:53.758Z,12.15
2019-05-29T00:10:53.735Z,12.18
2019-05-29T00:11:53.767Z,12.08
2019-05-29T00:12:53.713Z,12.03
2019-05-29T00:13:53.730Z,12.21
2019-05-29T00:14:53.761Z,12.2
2019-05-29T00:15:53.790Z,12.25
2019-05-29T00:16:53.688Z,12.23
2019-05-29T00:17:53.707Z,12.23
2019-05-29T00:18:58.112Z,12.15
2019-05-29T00:19:53.769Z,12.05
2019-05-29T00:20:53.763Z,12.14
2019-05-29T00:21:53.762Z,12.02
2019-05-29T00:22:53.793Z,12.08
2019-05-29T00:23:53.757Z,11.93
2019-05-29T00:24:53.781Z,12.03
2019-05-29T00:25:53.794Z,12
2019-05-29T00:26:53.803Z,12.14
2019-05-29T00:27:53.781Z,12.18
2019-05-29T00:28:53.795Z,12.17
2019-05-29T00:29:53.943Z,12.11
2019-05-29T00:30:53.786Z,12.2
2019-05-29T00:31:53.958Z,12.11
2019-05-29T00:32:53.805Z,11.97
2019-05-29T00:33:53.780Z,12.05
2019-05-29T00:34:53.788Z,12.02
2019-05-29T00:35:53.777Z,11.86
2019-05-29T00:36:53.783Z,11.81
2019-05-29T00:37:53.751Z,11.7
2019-05-29T00:38:53.832Z,11.88
2019-05-29T00:39:53.834Z,11.89
2019-05-29T00:40:53.769Z,11.93
2019-05-29T00:41:53.794Z,11.99
2019-05-29T00:42:53.803Z,11.86
2019-05-29T00:43:53.790Z,11.81
2019-05-29T00:44:53.851Z,11.77
2019-05-29T00:45:54.068Z,11.71
2019-05-29T00:46:53.830Z,11.74
2019-05-29T00:47:54.820Z,11.71
2019-05-29T00:48:53.921Z,11.62
2019-05-29T00:49:53.824Z,11.81
2019-05-29T00:50:53.773Z,11.77
2019-05-29T00:51:53.782Z,11.83
2019-05-29T00:52:53.780Z,11.78
2019-05-29T00:53:53.750Z,11.88
2019-05-29T00:54:53.984Z,11.81
2019-05-29T00:55:54.256Z,11.81
2019-05-29T00:56:53.767Z,11.85
2019-05-29T00:57:54.124Z,11.76
2019-05-29T00:58:53.783Z,11.77
2019-05-29T00:59:53.791Z,11.78
2019-05-29T01:00:53.804Z,11.7
2019-05-29T01:01:53.797Z,11.88
2019-05-29T01:02:54.145Z,11.7
2019-05-29T01:03:53.808Z,11.89
2019-05-29T01:04:53.838Z,11.86
2019-05-29T01:05:53.799Z,11.71
2019-05-29T01:06:53.830Z,11.74
2019-05-29T01:07:53.834Z,11.8
2019-05-29T01:08:54.171Z,11.85
2019-05-29T01:09:53.851Z,11.83
2019-05-29T01:10:53.815Z,11.8
2019-05-29T01:11:53.802Z,11.88
2019-05-29T01:12:54.021Z,11.91
2019-05-29T01:13:53.941Z,11.95
2019-05-29T01:14:55.884Z,11.81
2019-05-29T01:15:53.846Z,11.8
2019-05-29T01:16:53.828Z,11.83
2019-05-29T01:17:54.065Z,11.68
2019-05-29T01:18:53.926Z,11.7
2019-05-29T01:19:53.856Z,11.76
2019-05-29T01:20:53.817Z,11.81
2019-05-29T01:21:53.848Z,11.7
2019-05-29T01:22:53.973Z,11.65
2019-05-29T01:23:53.879Z,11.65
2019-05-29T01:24:53.880Z,11.73
2019-05-29T01:25:53.835Z,11.68
2019-05-29T01:26:53.854Z,11.63
2019-05-29T01:27:53.886Z,11.68
2019-05-29T01:28:53.826Z,11.71
2019-05-29T01:29:53.900Z,11.7
2019-05-29T01:30:56.790Z,11.7
2019-05-29T01:31:53.850Z,11.71
2019-05-29T01:32:53.857Z,11.73
2019-05-29T01:33:53.824Z,11.71
2019-05-29T01:34:53.930Z,11.74
2019-05-29T01:35:54.780Z,11.7
2019-05-29T01:36:53.885Z,11.71
2019-05-29T01:37:54.138Z,11.74
2019-05-29T01:38:53.855Z,11.62
2019-05-29T01:39:53.869Z,11.65
2019-05-29T01:40:53.849Z,11.56
2019-05-29T01:41:55.077Z,11.7
2019-05-29T01:42:55.337Z,11.67
2019-05-29T01:43:53.923Z,11.67
2019-05-29T01:45:09.881Z,11.71
2019-05-29T01:45:53.857Z,11.65
2019-05-29T01:46:53.863Z,11.7
2019-05-29T01:47:53.852Z,11.63
2019-05-29T01:48:53.962Z,11.58
2019-05-29T01:49:53.830Z,11.7
2019-05-29T01:50:53.887Z,11.63
2019-05-29T01:51:53.873Z,11.48
2019-05-29T01:52:53.879Z,11.45
2019-05-29T01:53:53.830Z,11.43
2019-05-29T01:54:53.864Z,11.59
2019-05-29T01:55:53.882Z,11.56
2019-05-29T01:56:53.900Z,11.55
2019-05-29T01:57:53.856Z,11.59
2019-05-29T01:58:53.899Z,11.65
2019-05-29T01:59:53.896Z,11.67
2019-05-29T02:00:53.934Z,11.65
2019-05-29T02:01:53.880Z,11.71
2019-05-29T02:02:53.884Z,11.71
2019-05-29T02:03:54.242Z,11.74
2019-05-29T02:04:53.914Z,11.67
2019-05-29T02:05:53.903Z,11.76
2019-05-29T02:06:53.927Z,11.68
2019-05-29T02:07:54.024Z,11.65
2019-05-29T02:08:53.887Z,11.7
2019-05-29T02:09:53.907Z,11.67
2019-05-29T02:10:53.899Z,11.67
2019-05-29T02:11:53.956Z,11.7
2019-05-29T02:12:53.911Z,11.74
2019-05-29T02:13:53.937Z,11.68
2019-05-29T02:14:53.905Z,11.63
2019-05-29T02:15:53.951Z,11.77
2019-05-29T02:16:53.916Z,11.67
2019-05-29T02:17:53.890Z,11.76
2019-05-29T02:18:53.950Z,11.7
2019-05-29T02:19:53.955Z,11.73
2019-05-29T02:20:53.951Z,11.45
2019-05-29T02:21:53.951Z,11.52
2019-05-29T02:22:53.936Z,11.59
2019-05-29T02:23:53.938Z,11.65
2019-05-29T02:24:53.930Z,11.59
2019-05-29T02:25:53.958Z,11.52
2019-05-29T02:26:53.902Z,11.55
2019-05-29T02:27:53.970Z,11.59
2019-05-29T02:28:54.016Z,11.58
2019-05-29T02:29:53.903Z,11.65
2019-05-29T02:30:53.965Z,11.73
2019-05-29T02:31:53.919Z,11.74
2019-05-29T02:32:53.992Z,11.71
2019-05-29T02:33:54.274Z,11.71
2019-05-29T02:34:53.929Z,11.71
2019-05-29T02:35:53.958Z,11.56
2019-05-29T02:36:53.941Z,11.59
2019-05-29T02:37:53.949Z,11.68
2019-05-29T02:38:54.034Z,11.67
2019-05-29T02:39:53.944Z,11.73
2019-05-29T02:40:53.924Z,11.55
2019-05-29T02:41:53.932Z,11.6
2019-05-29T02:42:53.980Z,11.65
2019-05-29T02:43:53.928Z,11.56
2019-05-29T02:44:53.972Z,11.68
2019-05-29T02:45:59.780Z,11.63
2019-05-29T02:46:53.949Z,11.7
2019-05-29T02:47:53.927Z,11.73
2019-05-29T02:48:53.997Z,11.81
2019-05-29T02:49:53.946Z,11.68
2019-05-29T02:50:53.970Z,11.77
2019-05-29T02:51:53.941Z,11.73
2019-05-29T02:52:54.006Z,11.62
2019-05-29T02:53:54.019Z,11.62
2019-05-29T02:54:53.962Z,11.65
2019-05-29T02:55:53.984Z,11.68
2019-05-29T02:56:53.928Z,11.71
2019-05-29T02:57:53.958Z,11.71
2019-05-29T02:58:54.008Z,11.52
2019-05-29T02:59:53.946Z,11.55
2019-05-29T03:00:54.035Z,11.68
2019-05-29T03:01:53.969Z,11.63
2019-05-29T03:02:53.967Z,11.56
2019-05-29T03:03:54.037Z,11.73
2019-05-29T03:04:54.004Z,11.6
2019-05-29T03:05:53.967Z,11.6
2019-05-29T03:06:54.004Z,11.68
2019-05-29T03:07:54.219Z,11.68
2019-05-29T03:08:54.335Z,11.71
2019-05-29T03:09:54.022Z,11.38
2019-05-29T03:10:53.966Z,11.53
2019-05-29T03:11:54.049Z,11.58
2019-05-29T03:12:54.056Z,11.49
2019-05-29T03:13:54.037Z,11.48
2019-05-29T03:14:54.033Z,11.52
2019-05-29T03:16:15.831Z,11.49
2019-05-29T03:16:54.047Z,11.53
2019-05-29T03:17:54.030Z,11.52
2019-05-29T03:18:53.998Z,11.45
2019-05-29T03:19:53.981Z,11.52
2019-05-29T03:20:54.029Z,11.38
2019-05-29T03:21:54.050Z,11.44
2019-05-29T03:22:54.046Z,11.49
2019-05-29T03:23:53.983Z,11.49
2019-05-29T03:24:54.177Z,11.44
2019-05-29T03:25:54.083Z,11.6
2019-05-29T03:26:54.010Z,11.43
2019-05-29T03:27:53.991Z,11.44
2019-05-29T03:28:54.004Z,11.49
2019-05-29T03:29:54.005Z,11.37
2019-05-29T03:30:54.059Z,11.58
2019-05-29T03:31:54.307Z,11.59
2019-05-29T03:32:54.373Z,11.53
2019-05-29T03:33:56.195Z,11.62
2019-05-29T03:34:54.151Z,11.59
2019-05-29T03:35:54.239Z,11.52
2019-05-29T03:36:54.642Z,11.52
2019-05-29T03:37:54.038Z,11.45
2019-05-29T03:38:54.076Z,11.56
2019-05-29T03:39:54.040Z,11.52
2019-05-29T03:40:54.134Z,11.55
2019-05-29T03:41:54.039Z,11.49
2019-05-29T03:42:54.080Z,11.49
2019-05-29T03:43:54.092Z,11.38
2019-05-29T03:44:54.065Z,11.43
2019-05-29T03:45:54.066Z,11.4
2019-05-29T03:46:54.113Z,11.49
2019-05-29T03:47:54.031Z,11.52
2019-05-29T03:48:54.064Z,11.53
2019-05-29T03:49:54.088Z,11.59
2019-05-29T03:50:54.095Z,11.68
2019-05-29T03:51:54.078Z,11.68
2019-05-29T03:52:54.085Z,11.59
2019-05-29T03:53:54.155Z,11.58
2019-05-29T03:54:54.084Z,11.68
2019-05-29T03:55:54.069Z,11.74
2019-05-29T03:56:54.076Z,11.78
2019-05-29T03:57:54.147Z,11.55
2019-05-29T03:58:54.740Z,11.73
2019-05-29T03:59:54.647Z,11.74
2019-05-29T04:00:54.877Z,11.68
2019-05-29T04:01:54.089Z,11.78
2019-05-29T04:02:54.052Z,11.77
2019-05-29T04:03:54.231Z,11.6
2019-05-29T04:04:54.146Z,11.6
2019-05-29T04:05:54.129Z,11.63
2019-05-29T04:06:54.196Z,11.73
2019-05-29T04:07:54.878Z,11.76
2019-05-29T04:08:54.294Z,11.67
2019-05-29T04:09:54.095Z,11.63
2019-05-29T04:10:54.072Z,11.65
2019-05-29T04:11:54.106Z,11.65
2019-05-29T04:12:54.175Z,11.65
2019-05-29T04:13:54.106Z,11.73
2019-05-29T04:14:54.087Z,11.7
2019-05-29T04:15:54.236Z,11.62
2019-05-29T04:17:04.432Z,11.7
2019-05-29T04:17:54.130Z,11.67
2019-05-29T04:18:54.135Z,11.65
2019-05-29T04:19:54.080Z,11.63
2019-05-29T04:20:54.181Z,11.67
2019-05-29T04:21:54.116Z,11.63
2019-05-29T04:22:54.158Z,11.59
2019-05-29T04:23:54.147Z,11.6
2019-05-29T04:24:54.174Z,11.56
2019-05-29T04:25:54.135Z,11.65
2019-05-29T04:26:54.145Z,11.48
2019-05-29T04:27:54.214Z,11.45
2019-05-29T04:28:54.136Z,11.44
2019-05-29T04:29:54.147Z,11.44
2019-05-29T04:30:54.108Z,11.52
2019-05-29T04:31:54.116Z,11.37
2019-05-29T04:32:54.156Z,11.41
2019-05-29T04:33:54.515Z,11.49
2019-05-29T04:34:54.388Z,11.63
2019-05-29T04:35:54.170Z,11.49
2019-05-29T04:36:54.279Z,11.38
2019-05-29T04:37:54.152Z,11.44
2019-05-29T04:38:54.566Z,11.38
2019-05-29T04:39:54.302Z,11.43
2019-05-29T04:40:54.262Z,11.49
2019-05-29T04:41:54.372Z,11.63
2019-05-29T04:42:54.408Z,11.49
2019-05-29T04:43:56.966Z,11.53
2019-05-29T04:44:54.172Z,11.4
2019-05-29T04:45:54.317Z,11.55
2019-05-29T04:47:12.694Z,11.56
2019-05-29T04:47:54.208Z,11.59
2019-05-29T04:48:54.326Z,11.62
2019-05-29T04:49:54.429Z,11.62
2019-05-29T04:50:54.623Z,11.67
2019-05-29T04:51:54.212Z,11.67
2019-05-29T04:52:54.249Z,11.62
2019-05-29T04:53:54.197Z,11.8
2019-05-29T04:54:54.115Z,11.59
2019-05-29T04:55:54.242Z,11.7
2019-05-29T04:56:54.349Z,11.59
2019-05-29T04:57:56.387Z,11.65
2019-05-29T04:58:54.487Z,11.77
2019-05-29T04:59:54.162Z,11.85
2019-05-29T05:01:03.964Z,11.63
2019-05-29T05:01:54.307Z,11.58
2019-05-29T05:02:54.204Z,11.7
2019-05-29T05:03:58.952Z,11.65
2019-05-29T05:04:54.243Z,11.67
2019-05-29T05:05:54.187Z,11.78
2019-05-29T05:06:54.181Z,11.86
2019-05-29T05:07:54.209Z,11.7
2019-05-29T05:08:54.522Z,11.99
2019-05-29T05:09:54.223Z,11.96
2019-05-29T05:10:54.180Z,12.05
2019-05-29T05:11:54.217Z,12.05
2019-05-29T05:12:54.427Z,12.07
2019-05-29T05:13:54.283Z,12.08
2019-05-29T05:14:54.288Z,12.11
2019-05-29T05:15:54.296Z,12.11
2019-05-29T05:16:54.204Z,12.02
2019-05-29T05:17:54.185Z,12.05
2019-05-29T05:18:54.824Z,12.1
2019-05-29T05:19:54.196Z,12.15
2019-05-29T05:20:54.275Z,12.17
2019-05-29T05:21:54.258Z,12
2019-05-29T05:22:54.260Z,11.96
2019-05-29T05:23:54.498Z,11.96
2019-05-29T05:24:54.255Z,12.07
2019-05-29T05:25:54.160Z,12.1
2019-05-29T05:26:54.211Z,11.95
2019-05-29T05:27:54.230Z,12.02
2019-05-29T05:28:54.484Z,12.2
2019-05-29T05:29:54.223Z,12.2
2019-05-29T05:30:54.321Z,12.17
2019-05-29T05:31:54.256Z,12.18
2019-05-29T05:32:54.223Z,11.89
2019-05-29T05:33:58.009Z,12
2019-05-29T05:34:54.246Z,12.07
2019-05-29T05:35:54.213Z,12.12
2019-05-29T05:36:54.225Z,12
2019-05-29T05:37:54.270Z,12.08
2019-05-29T05:38:54.496Z,12.15
2019-05-29T05:39:54.305Z,12.23
2019-05-29T05:40:54.231Z,12.37
2019-05-29T05:41:54.211Z,12.35
2019-05-29T05:42:54.217Z,12.37
2019-05-29T05:43:54.245Z,12.58
2019-05-29T05:44:54.216Z,12.53
2019-05-29T05:45:54.256Z,12.5
2019-05-29T05:46:54.386Z,12.63
2019-05-29T05:48:02.797Z,12.7
2019-05-29T05:48:54.237Z,12.66
2019-05-29T05:49:54.222Z,12.78
2019-05-29T05:50:54.227Z,12.76
2019-05-29T05:51:54.297Z,12.61
2019-05-29T05:52:54.303Z,12.65
2019-05-29T05:53:54.275Z,12.65
2019-05-29T05:54:54.256Z,12.7
2019-05-29T05:55:54.246Z,12.86
2019-05-29T05:56:56.337Z,12.87
2019-05-29T05:57:54.256Z,12.93
2019-05-29T05:58:54.226Z,12.95
2019-05-29T05:59:54.213Z,13.06
2019-05-29T06:00:54.276Z,12.99
2019-05-29T06:01:54.268Z,13.13
2019-05-29T06:02:57.872Z,12.99
2019-05-29T06:04:04.926Z,12.99
2019-05-29T06:04:54.296Z,13.05
2019-05-29T06:05:54.689Z,12.99
2019-05-29T06:06:54.287Z,12.93
2019-05-29T06:07:54.236Z,13.13
2019-05-29T06:08:54.299Z,13.21
2019-05-29T06:09:54.288Z,13.3
2019-05-29T06:10:56.473Z,13.23
2019-05-29T06:11:54.881Z,13.21
2019-05-29T06:12:54.326Z,13.09
2019-05-29T06:13:54.276Z,13.2
2019-05-29T06:14:54.289Z,13.03
2019-05-29T06:15:54.316Z,13.13
2019-05-29T06:16:54.315Z,13.31
2019-05-29T06:18:24.158Z,13.27
2019-05-29T06:18:54.285Z,13.08
2019-05-29T06:19:54.309Z,12.99
2019-05-29T06:20:54.258Z,13.3
2019-05-29T06:21:54.306Z,13.68
2019-05-29T06:22:54.353Z,14.18
2019-05-29T06:23:54.294Z,14
2019-05-29T06:24:54.400Z,13.95
2019-05-29T06:25:54.313Z,14.23
2019-05-29T06:26:54.294Z,13.93
2019-05-29T06:27:54.408Z,13.8
2019-05-29T06:28:54.329Z,13.55
2019-05-29T06:29:54.294Z,13.87
2019-05-29T06:30:54.301Z,14.13
2019-05-29T06:31:54.287Z,13.8
2019-05-29T06:32:54.465Z,13.6
2019-05-29T06:34:05.598Z,13.5
2019-05-29T06:34:54.358Z,13.46
2019-05-29T06:35:54.375Z,13.42
2019-05-29T06:36:54.311Z,13.4
2019-05-29T06:37:54.300Z,13.37
2019-05-29T06:38:54.345Z,13.39
2019-05-29T06:39:54.291Z,13.49
2019-05-29T06:40:54.339Z,13.42
2019-05-29T06:41:54.326Z,13.4
2019-05-29T06:42:54.332Z,13.37
2019-05-29T06:43:54.495Z,13.21
2019-05-29T06:44:55.579Z,13.24
2019-05-29T06:45:54.324Z,13.17
2019-05-29T06:46:54.378Z,13.3
2019-05-29T06:47:54.370Z,13.3
2019-05-29T06:49:04.516Z,13.12
2019-05-29T06:49:54.356Z,13.19
2019-05-29T06:50:57.396Z,13.17
2019-05-29T06:51:54.413Z,13.26
2019-05-29T06:52:54.309Z,13.28
2019-05-29T06:53:54.423Z,13.4
2019-05-29T06:54:54.439Z,13.4
2019-05-29T06:56:02.637Z,13.4
2019-05-29T06:56:54.342Z,13.43
2019-05-29T06:57:54.424Z,13.28
2019-05-29T06:58:54.338Z,13.39
2019-05-29T06:59:54.342Z,13.36
2019-05-29T07:00:54.362Z,13.31
2019-05-29T07:01:54.380Z,13.42
2019-05-29T07:02:54.389Z,13.4
2019-05-29T07:04:12.135Z,13.3
2019-05-29T07:04:54.399Z,13.37
2019-05-29T07:05:57.698Z,13.23
2019-05-29T07:06:54.378Z,13.33
2019-05-29T07:07:54.374Z,13.36
2019-05-29T07:08:55.595Z,13.42
2019-05-29T07:09:54.349Z,13.33
2019-05-29T07:10:54.454Z,13.24
2019-05-29T07:11:54.405Z,13.33
2019-05-29T07:12:54.469Z,13.43
2019-05-29T07:13:55.929Z,13.42
2019-05-29T07:14:54.343Z,13.43
2019-05-29T07:15:54.411Z,13.57
2019-05-29T07:17:01.300Z,13.57
2019-05-29T07:17:54.464Z,13.46
2019-05-29T07:20:00.343Z,13.55
2019-05-29T07:20:14.303Z,13.58
2019-05-29T07:21:14.287Z,13.47
2019-05-29T07:22:14.294Z,13.65
2019-05-29T07:23:14.323Z,13.68
2019-05-29T07:24:14.282Z,13.49
2019-05-29T07:25:14.273Z,13.79
2019-05-29T07:26:14.362Z,13.8
2019-05-29T07:27:18.975Z,13.95
2019-05-29T07:28:14.328Z,14.08
2019-05-29T07:29:14.343Z,14.15
2019-05-29T07:30:14.350Z,14.23
2019-05-29T07:31:14.303Z,14.19
2019-05-29T07:32:14.298Z,13.85
2019-05-29T07:33:14.393Z,13.93
2019-05-29T07:34:14.379Z,14.01
2019-05-29T07:35:14.314Z,14.18
2019-05-29T07:36:14.321Z,14.2
2019-05-29T07:37:14.357Z,14.18
2019-05-29T07:38:14.300Z,14.13
2019-05-29T07:39:14.320Z,14.04
2019-05-29T07:40:14.325Z,14.15
2019-05-29T07:41:14.399Z,14.25
2019-05-29T07:42:14.367Z,14.15
2019-05-29T07:43:14.410Z,14.34
2019-05-29T07:44:14.560Z,14.26
2019-05-29T07:45:14.317Z,14.36
2019-05-29T07:46:14.392Z,14.44
2019-05-29T07:47:15.239Z,14.37
2019-05-29T07:48:14.380Z,14.38
2019-05-29T07:49:14.332Z,14.55
2019-05-29T07:50:14.337Z,14.66
2019-05-29T07:51:14.364Z,14.56
2019-05-29T07:52:14.302Z,14.67
2019-05-29T07:53:14.408Z,14.7
2019-05-29T07:54:14.385Z,14.86
2019-05-29T07:55:14.393Z,14.96
2019-05-29T07:56:27.415Z,14.71
2019-05-29T07:57:14.748Z,14.63
2019-05-29T07:58:14.447Z,14.67
2019-05-29T07:59:14.351Z,14.74
2019-05-29T08:00:14.338Z,14.97
2019-05-29T08:01:19.034Z,14.89
2019-05-29T08:02:14.374Z,14.9
2019-05-29T08:03:14.379Z,14.94
2019-05-29T08:04:15.462Z,14.87
2019-05-29T08:10:56.126Z,14.58
2019-05-29T08:11:56.088Z,14.7
2019-05-29T08:13:00.795Z,14.52
2019-05-29T08:13:56.069Z,14.53
2019-05-29T08:14:56.174Z,14.45
2019-05-29T08:16:07.919Z,14.56
2019-05-29T08:16:56.128Z,14.59
2019-05-29T08:17:56.118Z,14.61
2019-05-29T08:18:58.309Z,14.61
2019-05-29T08:20:10.832Z,14.55
2019-05-29T08:20:56.137Z,14.58
2019-05-29T08:21:56.162Z,14.55
2019-05-29T08:22:56.743Z,14.67
2019-05-29T08:23:56.150Z,14.86
2019-05-29T08:24:56.487Z,14.82
2019-05-29T08:25:57.115Z,14.96
2019-05-29T08:26:56.977Z,14.92
2019-05-29T08:27:56.140Z,15
2019-05-29T08:28:56.472Z,14.87
2019-05-29T08:29:56.499Z,14.97
2019-05-29T08:31:01.381Z,15.08
2019-05-29T08:31:56.291Z,15.1
2019-05-29T08:32:56.604Z,15.18
2019-05-29T08:33:56.646Z,15.18
2019-05-29T08:34:56.520Z,15.23
2019-05-29T08:36:05.025Z,15.23
2019-05-29T08:37:11.769Z,15.29
2019-05-29T08:37:56.445Z,15.41
2019-05-29T08:38:57.080Z,15.27
2019-05-29T08:39:56.901Z,15.23
2019-05-29T08:40:56.764Z,15.29
2019-05-29T08:42:26.452Z,15.3
2019-05-29T08:42:56.714Z,15.22
2019-05-29T08:43:56.354Z,15.35
2019-05-29T08:44:56.932Z,15.36
2019-05-29T08:45:57.984Z,15.35
2019-05-29T08:47:14.373Z,15.32
2019-05-29T08:47:57.200Z,15.32
2019-05-29T08:48:57.488Z,15.48
2019-05-29T08:50:20.010Z,15.36
2019-05-29T08:50:57.247Z,15.3
2019-05-29T08:52:14.227Z,15.36
2019-05-29T08:52:57.481Z,15.26
2019-05-29T08:53:59.330Z,15.25
2019-05-29T08:54:57.466Z,15.29
2019-05-29T08:55:56.204Z,15.27
2019-05-29T08:56:56.153Z,15.23
2019-05-29T08:57:56.248Z,15.1
2019-05-29T08:58:56.428Z,15.14
2019-05-29T08:59:56.382Z,15.11
2019-05-29T09:01:00.173Z,14.92
2019-05-29T09:02:00.251Z,14.71
2019-05-29T09:02:56.485Z,14.68
2019-05-29T09:03:56.638Z,14.73
2019-05-29T09:04:59.529Z,14.82
2019-05-29T09:06:16.285Z,14.49
2019-05-29T09:06:56.426Z,14.61
2019-05-29T09:07:59.287Z,14.74
2019-05-29T09:08:59.452Z,14.71
2019-05-29T09:09:56.586Z,14.63
2019-05-29T09:10:57.331Z,14.73
2019-05-29T09:11:57.115Z,14.74
2019-05-29T09:13:09.207Z,14.73
2019-05-29T09:13:57.008Z,14.61
2019-05-29T09:14:56.235Z,14.44
2019-05-29T09:15:56.203Z,14.58
2019-05-29T09:16:56.267Z,14.52
2019-05-29T09:17:56.197Z,14.58
2019-05-29T09:18:56.200Z,14.58
2019-05-29T09:19:56.185Z,14.67
2019-05-29T09:21:08.358Z,14.49
2019-05-29T09:21:56.570Z,14.61
2019-05-29T09:22:56.222Z,14.71
2019-05-29T09:23:58.615Z,14.7
2019-05-29T09:24:56.286Z,14.7
2019-05-29T09:26:11.412Z,14.55
2019-05-29T09:26:56.190Z,14.59
2019-05-29T09:27:56.196Z,14.55
2019-05-29T09:28:57.162Z,14.48
2019-05-29T09:29:56.236Z,14.56
2019-05-29T09:30:56.176Z,14.53
2019-05-29T09:31:56.285Z,14.52
2019-05-29T09:32:58.341Z,14.73
2019-05-29T09:33:56.337Z,14.78
2019-05-29T09:34:56.220Z,14.7
2019-05-29T09:35:56.263Z,14.49
2019-05-29T09:37:02.385Z,14.68
2019-05-29T09:37:56.187Z,14.63
2019-05-29T09:38:56.821Z,14.73
2019-05-29T09:39:56.520Z,14.53
2019-05-29T09:40:58.167Z,14.68
2019-05-29T09:41:56.249Z,14.62
2019-05-29T09:42:56.230Z,14.79
2019-05-29T09:44:04.838Z,14.81
2019-05-29T09:44:56.226Z,14.92
2019-05-29T09:45:56.314Z,14.97
2019-05-29T09:46:56.500Z,14.89
2019-05-29T09:47:56.230Z,14.79
2019-05-29T09:48:57.132Z,14.68
2019-05-29T09:49:56.279Z,14.74
2019-05-29T09:50:56.271Z,14.71
2019-05-29T09:51:59.659Z,14.86
2019-05-29T09:53:00.728Z,14.77
2019-05-29T09:54:01.406Z,14.92
2019-05-29T09:54:58.833Z,14.93
2019-05-29T09:56:02.902Z,15.17
2019-05-29T09:57:01.104Z,14.97
2019-05-29T09:58:00.682Z,15
2019-05-29T09:59:01.803Z,15.22
2019-05-29T09:59:59.856Z,15.35
2019-05-29T10:01:26.653Z,15.18
2019-05-29T10:02:00.247Z,15
2019-05-29T10:02:59.299Z,15.35
2019-05-29T10:04:01.843Z,15.52
2019-05-29T10:05:00.532Z,15.32
2019-05-29T10:05:57.527Z,15.19
2019-05-29T10:06:59.422Z,15.3
2019-05-29T10:07:59.738Z,15.12
2019-05-29T10:08:59.910Z,15.22
2019-05-29T10:10:00.522Z,15.22
2019-05-29T10:11:10.599Z,14.89
2019-05-29T10:12:05.215Z,15.23
2019-05-29T10:12:59.957Z,15.14
2019-05-29T10:13:58.845Z,15.1
2019-05-29T10:14:59.335Z,15.29
2019-05-29T10:15:59.054Z,15.27
2019-05-29T10:17:02.605Z,15.36
2019-05-29T10:17:58.489Z,15.32
2019-05-29T10:18:59.718Z,15.44
2019-05-29T10:19:58.946Z,15.54
2019-05-29T10:20:59.651Z,15.51
2019-05-29T10:21:58.258Z,15.36
2019-05-29T10:22:58.959Z,15.48
2019-05-29T10:23:58.259Z,15
2019-05-29T10:24:59.970Z,15.07
2019-05-29T10:25:58.728Z,15.26
2019-05-29T10:26:57.399Z,15.41
2019-05-29T10:27:56.458Z,15.3
2019-05-29T10:29:13.443Z,15.5
2019-05-29T10:29:58.379Z,15.48
2019-05-29T10:31:03.001Z,15.48
2019-05-29T10:31:58.642Z,15.45
2019-05-29T10:32:58.095Z,15.39
2019-05-29T10:33:57.627Z,15.57
2019-05-29T10:34:57.838Z,15.48
2019-05-29T10:36:03.625Z,15.51
2019-05-29T10:36:59.735Z,15.59
2019-05-29T10:37:56.371Z,15.65
2019-05-29T10:38:56.349Z,15.57
2019-05-29T10:39:56.375Z,15.43
2019-05-29T10:41:10.404Z,15.39
2019-05-29T10:41:56.326Z,15.5
2019-05-29T10:42:56.876Z,15.63
2019-05-29T10:43:56.613Z,15.76
2019-05-29T10:44:56.573Z,15.87
2019-05-29T10:45:57.348Z,15.92
2019-05-29T10:46:59.369Z,15.88
2019-05-29T10:47:57.661Z,16.17
2019-05-29T10:48:59.528Z,16.21
2019-05-29T10:49:57.056Z,16.18
2019-05-29T10:50:59.048Z,15.73
2019-05-29T10:52:19.995Z,15.92
2019-05-29T10:52:57.426Z,15.91
2019-05-29T10:54:01.865Z,16.18
2019-05-29T10:54:57.641Z,15.94
2019-05-29T10:55:57.587Z,15.81
2019-05-29T10:56:58.046Z,15.84
2019-05-29T10:57:57.866Z,15.7
2019-05-29T10:59:03.096Z,15.65
2019-05-29T10:59:57.479Z,15.81
2019-05-29T11:00:58.215Z,15.99
2019-05-29T11:01:58.202Z,15.87
2019-05-29T11:03:00.464Z,15.92
2019-05-29T11:03:59.076Z,15.91
2019-05-29T11:05:02.297Z,15.78
2019-05-29T11:05:56.839Z,15.78
2019-05-29T11:06:59.566Z,15.54
2019-05-29T11:07:58.565Z,15.43
2019-05-29T11:08:58.786Z,15.54
2019-05-29T11:09:58.812Z,15.66
2019-05-29T11:10:57.461Z,15.72
2019-05-29T11:12:00.455Z,15.52
2019-05-29T11:12:58.128Z,15.5
2019-05-29T11:13:57.765Z,15.75
2019-05-29T11:14:57.667Z,15.81
2019-05-29T11:15:57.450Z,16
2019-05-29T11:16:57.737Z,15.98
2019-05-29T11:17:57.945Z,16.03
2019-05-29T11:18:57.859Z,15.91
2019-05-29T11:19:58.358Z,15.75
2019-05-29T11:20:57.597Z,15.9
2019-05-29T11:22:25.030Z,16.05
2019-05-29T11:22:57.801Z,15.81
2019-05-29T11:23:58.157Z,16.08
2019-05-29T11:25:18.751Z,16.05
2019-05-29T11:25:58.159Z,15.94
2019-05-29T11:26:59.292Z,16.05
2019-05-29T11:27:59.404Z,16.22
2019-05-29T11:28:58.727Z,16.03
2019-05-29T11:29:59.739Z,15.92
2019-05-29T11:31:05.850Z,16.17
2019-05-29T11:31:59.941Z,16.02
2019-05-29T11:33:03.746Z,15.83
2019-05-29T11:33:59.071Z,16
2019-05-29T11:34:59.655Z,15.91
2019-05-29T11:36:15.590Z,15.98
2019-05-29T11:36:58.242Z,15.99
2019-05-29T11:37:59.644Z,15.8
2019-05-29T11:39:03.854Z,15.99
2019-05-29T11:39:58.773Z,15.9
2019-05-29T11:41:28.559Z,16.28
2019-05-29T11:41:57.396Z,16.29
2019-05-29T11:42:59.513Z,16.28
2019-05-29T11:43:58.638Z,16.16
2019-05-29T11:44:59.414Z,16.13
2019-05-29T11:45:57.749Z,16.24
2019-05-29T11:46:58.882Z,16.08
2019-05-29T11:48:01.406Z,16.21
2019-05-29T11:48:59.233Z,16.17
2019-05-29T11:50:02.804Z,15.99
2019-05-29T11:50:58.259Z,16.18
2019-05-29T11:52:24.650Z,16.4
2019-05-29T11:52:58.517Z,16.41
2019-05-29T11:53:58.014Z,16.66
2019-05-29T11:55:07.986Z,17.1
2019-05-29T11:56:01.938Z,17.2
2019-05-29T11:57:00.042Z,17.07
2019-05-29T11:57:58.429Z,17.41
2019-05-29T11:58:57.475Z,17.63
2019-05-29T12:00:01.565Z,17.56
2019-05-29T12:00:57.665Z,17.31
2019-05-29T12:02:03.696Z,17.66
2019-05-29T12:02:59.608Z,17.47
2019-05-29T12:04:35.701Z,17.56
2019-05-29T12:05:00.666Z,17.57
2019-05-29T12:05:59.300Z,17.72
2019-05-29T12:06:57.907Z,17.86
2019-05-29T12:07:59.480Z,17.79
2019-05-29T12:08:59.732Z,17.27
2019-05-29T12:09:57.932Z,17.35
2019-05-29T12:10:57.350Z,17.52
2019-05-29T12:12:00.292Z,17.49
2019-05-29T12:12:58.008Z,17.69
2019-05-29T12:14:00.458Z,17.93
2019-05-29T12:15:18.765Z,17.98
2019-05-29T12:15:57.709Z,17.8
2019-05-29T12:17:00.244Z,17.86
2019-05-29T12:18:26.494Z,17.54
2019-05-29T12:18:57.788Z,17.3
2019-05-29T12:19:59.742Z,17.52
2019-05-29T12:20:59.092Z,17.41
2019-05-29T12:22:00.432Z,17.75
2019-05-29T12:23:29.407Z,17.71
2019-05-29T12:23:58.452Z,17.91
2019-05-29T12:25:00.272Z,17.93
2019-05-29T12:26:25.704Z,18
2019-05-29T12:26:59.026Z,18.28
2019-05-29T12:28:01.191Z,18.82
2019-05-29T12:29:11.607Z,18.94
2019-05-29T12:29:58.763Z,19.05
2019-05-29T12:31:01.358Z,18.74
2019-05-29T12:32:02.127Z,18.71
2019-05-29T12:32:59.046Z,18.85
2019-05-29T12:34:03.455Z,18.81
2019-05-29T12:35:03.104Z,19.39
2019-05-29T12:35:57.573Z,19.39
2019-05-29T12:36:57.931Z,19.55
2019-05-29T12:37:57.771Z,19.72
2019-05-29T12:38:57.982Z,19.72
2019-05-29T12:39:58.227Z,19.59
2019-05-29T12:40:57.915Z,19.82
2019-05-29T12:41:58.005Z,19.53
2019-05-29T12:43:00.067Z,19.47
2019-05-29T12:43:57.857Z,19.45
2019-05-29T12:44:58.004Z,19.53
2019-05-29T12:45:59.952Z,19.39
2019-05-29T12:46:57.672Z,19.29
2019-05-29T12:47:59.776Z,19.63
2019-05-29T12:48:57.959Z,19.71
2019-05-29T12:49:57.619Z,19.49
2019-05-29T12:51:00.222Z,19.24
2019-05-29T12:51:57.598Z,19.17
2019-05-29T12:52:57.665Z,19.26
2019-05-29T12:53:57.879Z,19.26
2019-05-29T12:54:57.907Z,19.24
2019-05-29T12:55:58.179Z,19.08
2019-05-29T12:56:57.814Z,19.05
2019-05-29T12:57:57.893Z,18.57
2019-05-29T12:58:58.230Z,18.64
2019-05-29T12:59:57.894Z,18.51
2019-05-29T13:00:58.490Z,18.71
2019-05-29T13:01:58.397Z,18.64
2019-05-29T13:02:58.545Z,18.55